Time;durP1;ratioP1;P1;durP2;ratioP2;P2;SDS_P1;SDS_P2;PMS_P1;PMS_P2;Temp;Humidity;BMP_temperature;BMP_pressure;BME280_temperature;BME280_humidity;BME280_pressure;Samples;Min_cycle;Max_cycle;Signal;HPM_P1;HPM_P2
2021/01/27 00:01:46;;;;;;;;;;;5.40;76.10;;;;;;4989001;28;121021;-90
2021/01/27 00:04:12;;;;;;;;;;;5.40;76.10;;;;;;4988858;28;119670;-91
2021/01/27 00:06:37;;;;;;;;;;;5.40;76.10;;;;;;4989988;28;117281;-91
2021/01/27 00:09:03;;;;;;;;;;;5.40;76.00;;;;;;4989948;28;117374;-90
2021/01/27 00:11:28;;;;;;;;;;;5.40;76.00;;;;;;4988919;28;120041;-91
2021/01/27 00:13:54;;;;;;;;;;;5.40;76.00;;;;;;4987907;28;119174;-90
2021/01/27 00:16:19;;;;;;;;;;;5.40;76.00;;;;;;4989273;28;117200;-91
2021/01/27 00:18:45;;;;;;;;;;;5.40;76.00;;;;;;4989427;28;117405;-91
2021/01/27 00:21:10;;;;;;;;;;;5.40;76.00;;;;;;4988611;28;120802;-90
2021/01/27 00:23:36;;;;;;;;;;;5.40;76.00;;;;;;4988586;28;122534;-91
2021/01/27 00:26:01;;;;;;;;;;;5.40;76.00;;;;;;4989540;28;117405;-91
2021/01/27 00:28:27;;;;;;;;;;;5.40;76.00;;;;;;4989331;28;118030;-91
2021/01/27 00:30:52;;;;;;;;;;;5.40;75.90;;;;;;4988245;28;121117;-90
2021/01/27 00:33:18;;;;;;;;;;;5.40;76.00;;;;;;4988278;28;122439;-90
2021/01/27 00:35:47;;;;;;;;;;;5.40;75.90;;;;;;4989437;28;117443;-91
2021/01/27 00:38:17;;;;;;;;;;;5.40;75.90;;;;;;4989609;28;117821;-90
2021/01/27 00:40:42;;;;;;;;;;;5.40;75.90;;;;;;4988261;28;120112;-90
2021/01/27 00:43:08;;;;;;;;;;;5.40;75.90;;;;;;4987633;28;119340;-90
2021/01/27 00:45:33;;;;;;;;;;;5.40;75.80;;;;;;4989258;28;117443;-90
2021/01/27 00:47:59;;;;;;;;;;;5.40;75.80;;;;;;4989084;28;117871;-90
2021/01/27 00:50:24;;;;;;;;;;;5.40;75.80;;;;;;4988168;28;119995;-91
2021/01/27 00:52:51;;;;;;;;;;;5.40;75.80;;;;;;4987758;28;118843;-90
2021/01/27 00:55:21;;;;;;;;;;;5.40;75.80;;;;;;4988901;28;117529;-90
2021/01/27 00:57:46;;;;;;;;;;;5.40;75.80;;;;;;4989097;28;117740;-90
2021/01/27 01:00:13;;;;;;;;;;;5.40;75.80;;;;;;4988258;28;120277;-90
2021/01/27 01:02:39;;;;;;;;;;;5.40;75.90;;;;;;4988022;28;119631;-90
2021/01/27 01:05:06;;;;;;;;;;;5.40;75.90;;;;;;4988842;28;117477;-90
2021/01/27 01:07:32;;;;;;;;;;;5.40;75.90;;;;;;4988135;28;117348;-90
2021/01/27 01:09:57;;;;;;;;;;;5.40;75.90;;;;;;4987635;28;120650;-91
2021/01/27 01:12:23;;;;;;;;;;;5.40;75.90;;;;;;4988202;28;119417;-91
2021/01/27 01:14:48;;;;;;;;;;;5.40;75.80;;;;;;4988702;28;116829;-91
2021/01/27 01:17:14;;;;;;;;;;;5.40;75.80;;;;;;4988998;28;117818;-91
2021/01/27 01:19:39;;;;;;;;;;;5.40;75.80;;;;;;4987568;28;119961;-91
2021/01/27 01:22:04;;;;;;;;;;;5.40;75.70;;;;;;4987586;28;119666;-91
2021/01/27 01:24:30;;;;;;;;;;;5.40;75.70;;;;;;4989194;28;117248;-90
2021/01/27 01:26:55;;;;;;;;;;;5.40;75.70;;;;;;4988098;28;117768;-90
2021/01/27 01:29:21;;;;;;;;;;;5.40;75.70;;;;;;4987578;28;120190;-91
2021/01/27 01:31:46;;;;;;;;;;;5.40;75.60;;;;;;4986725;28;119262;-91
2021/01/27 01:34:12;;;;;;;;;;;5.40;75.60;;;;;;4988357;28;117488;-90
2021/01/27 01:36:37;;;;;;;;;;;5.40;75.60;;;;;;4988796;28;117849;-90
2021/01/27 01:39:03;;;;;;;;;;;5.40;75.50;;;;;;4987354;28;120194;-90
2021/01/27 01:41:28;;;;;;;;;;;5.40;75.60;;;;;;4987495;28;119252;-90
2021/01/27 01:43:54;;;;;;;;;;;5.40;75.60;;;;;;4988341;28;117518;-90
2021/01/27 01:46:20;;;;;;;;;;;5.40;75.60;;;;;;4988550;28;117397;-90
2021/01/27 01:48:55;;;;;;;;;;;5.40;75.60;;;;;;4987306;28;119985;-90
2021/01/27 01:51:31;;;;;;;;;;;5.40;75.60;;;;;;4987186;28;119717;-90
2021/01/27 01:53:58;;;;;;;;;;;5.40;76.20;;;;;;4987961;28;117308;-90
2021/01/27 01:56:24;;;;;;;;;;;5.40;75.60;;;;;;4987587;28;117607;-90
2021/01/27 01:58:53;;;;;;;;;;;5.40;75.50;;;;;;4987076;28;119727;-91
2021/01/27 02:01:19;;;;;;;;;;;5.40;75.50;;;;;;4987245;28;118850;-91
2021/01/27 02:03:46;;;;;;;;;;;5.40;75.50;;;;;;4987818;28;117246;-90
2021/01/27 02:06:11;;;;;;;;;;;5.40;75.50;;;;;;4988194;28;117305;-90
2021/01/27 02:08:38;;;;;;;;;;;5.40;75.50;;;;;;4986774;28;121215;-90
2021/01/27 02:11:03;;;;;;;;;;;5.40;75.60;;;;;;4986968;28;118865;-90
2021/01/27 02:13:29;;;;;;;;;;;5.40;75.50;;;;;;4987949;28;117456;-90
2021/01/27 02:15:54;;;;;;;;;;;5.40;75.40;;;;;;4988018;28;117338;-91
2021/01/27 02:18:38;;;;;;;;;;;5.40;75.50;;;;;;4986462;28;120030;-90
2021/01/27 02:21:16;;;;;;;;;;;5.40;75.40;;;;;;4985984;28;120601;-90
2021/01/27 02:23:50;;;;;;;;;;;5.40;75.50;;;;;;4987554;28;117521;-90
2021/01/27 02:26:31;;;;;;;;;;;5.40;75.40;;;;;;4987763;28;117772;-91
2021/01/27 02:29:15;;;;;;;;;;;5.40;75.40;;;;;;4986636;28;119991;-90
2021/01/27 02:32:00;;;;;;;;;;;5.40;75.40;;;;;;4986663;28;120364;-90
2021/01/27 02:34:37;;;;;;;;;;;5.40;75.40;;;;;;4987652;28;116614;-91
2021/01/27 02:37:03;;;;;;;;;;;5.40;75.40;;;;;;4987239;28;117283;-91
2021/01/27 02:39:30;;;;;;;;;;;5.40;75.40;;;;;;4986528;28;121063;-91
2021/01/27 02:41:58;;;;;;;;;;;5.40;75.40;;;;;;4986423;28;120854;-91
2021/01/27 02:44:24;;;;;;;;;;;5.40;75.40;;;;;;4987500;28;117426;-90
2021/01/27 02:46:54;;;;;;;;;;;5.40;75.40;;;;;;4987010;28;117866;-91
2021/01/27 02:49:38;;;;;;;;;;;5.40;75.40;;;;;;4986608;28;119873;-91
2021/01/27 02:52:11;;;;;;;;;;;5.40;75.30;;;;;;4985722;28;120495;-90
2021/01/27 02:54:37;;;;;;;;;;;5.40;76.00;;;;;;4987285;28;117413;-90
2021/01/27 02:57:38;;;;;;;;;;;5.40;75.40;;;;;;4987224;28;117511;-91
2021/01/27 03:00:07;;;;;;;;;;;5.40;75.40;;;;;;4945884;28;120300;-90
2021/01/27 03:02:39;;;;;;;;;;;5.40;75.40;;;;;;4961639;28;120236;-91
2021/01/27 03:05:12;;;;;;;;;;;5.30;75.40;;;;;;4987383;28;117515;-90
2021/01/27 03:07:38;;;;;;;;;;;5.40;75.40;;;;;;4987420;28;117446;-91
2021/01/27 03:10:14;;;;;;;;;;;5.40;75.40;;;;;;4986218;28;120085;-91
2021/01/27 03:12:39;;;;;;;;;;;5.30;75.30;;;;;;4985459;28;119422;-91
2021/01/27 03:15:06;;;;;;;;;;;5.40;75.40;;;;;;4986891;28;117410;-91
2021/01/27 03:17:31;;;;;;;;;;;5.30;75.30;;;;;;4987207;28;117259;-91
2021/01/27 03:20:07;;;;;;;;;;;5.40;75.30;;;;;;4986347;28;120158;-90
2021/01/27 03:22:43;;;;;;;;;;;5.40;75.30;;;;;;4986128;28;119816;-91
2021/01/27 03:25:10;;;;;;;;;;;5.40;75.30;;;;;;4986992;28;117269;-90
2021/01/27 03:27:37;;;;;;;;;;;5.40;75.30;;;;;;4986998;28;116898;-90
2021/01/27 03:30:05;;;;;;;;;;;5.40;75.30;;;;;;4986280;28;120011;-90
2021/01/27 03:32:33;;;;;;;;;;;5.40;75.40;;;;;;4986007;28;120477;-91
2021/01/27 03:35:01;;;;;;;;;;;5.40;75.40;;;;;;4986770;28;117522;-91
2021/01/27 03:37:47;;;;;;;;;;;5.30;75.40;;;;;;4986359;28;117368;-90
2021/01/27 03:40:13;;;;;;;;;;;5.30;75.30;;;;;;4985587;28;121455;-91
2021/01/27 03:42:45;;;;;;;;;;;5.30;75.40;;;;;;4985998;28;119430;-91
2021/01/27 03:45:11;;;;;;;;;;;5.40;75.30;;;;;;4986789;28;117724;-91
2021/01/27 03:47:38;;;;;;;;;;;5.30;75.30;;;;;;4987209;28;117556;-90
2021/01/27 03:50:08;;;;;;;;;;;5.30;75.20;;;;;;4988091;28;121010;-90
2021/01/27 03:52:34;;;;;;;;;;;5.40;75.40;;;;;;4988643;28;120598;-90
2021/01/27 03:55:15;;;;;;;;;;;5.40;75.30;;;;;;4989981;28;117557;-89
2021/01/27 03:57:42;;;;;;;;;;;5.30;75.20;;;;;;4990175;28;117330;-89
2021/01/27 04:00:08;;;;;;;;;;;5.40;75.30;;;;;;4988889;28;120307;-89
2021/01/27 04:02:33;;;;;;;;;;;5.40;75.30;;;;;;4988323;28;119612;-89
2021/01/27 04:04:59;;;;;;;;;;;5.40;75.30;;;;;;4989554;28;117308;-90
2021/01/27 04:07:24;;;;;;;;;;;5.30;75.20;;;;;;4989979;28;118266;-89
2021/01/27 04:09:49;;;;;;;;;;;5.40;75.30;;;;;;4988775;28;121159;-90
2021/01/27 04:12:15;;;;;;;;;;;5.30;75.30;;;;;;4988703;28;120431;-90
2021/01/27 04:14:40;;;;;;;;;;;5.30;75.20;;;;;;4989580;28;117548;-90
2021/01/27 04:17:10;;;;;;;;;;;5.30;75.20;;;;;;5006553;28;116888;-90
2021/01/27 04:19:35;;;;;;;;;;;5.30;75.30;;;;;;4988612;28;119633;-90
2021/01/27 04:22:01;;;;;;;;;;;5.30;75.30;;;;;;4988521;28;120381;-90
2021/01/27 04:24:26;;;;;;;;;;;5.30;75.20;;;;;;4989431;28;117262;-90
2021/01/27 04:26:52;;;;;;;;;;;5.30;75.30;;;;;;4988849;28;117390;-89
2021/01/27 04:29:17;;;;;;;;;;;5.30;75.30;;;;;;4988812;28;120069;-90
2021/01/27 04:31:43;;;;;;;;;;;5.30;75.20;;;;;;4988086;28;120212;-90
2021/01/27 04:34:08;;;;;;;;;;;5.30;75.30;;;;;;4989164;28;117424;-89
2021/01/27 04:36:34;;;;;;;;;;;5.30;75.30;;;;;;4989517;28;118265;-90
2021/01/27 04:38:59;;;;;;;;;;;5.30;75.20;;;;;;4988200;28;120130;-90
2021/01/27 04:41:25;;;;;;;;;;;5.30;75.20;;;;;;4988364;28;119541;-90
2021/01/27 04:43:51;;;;;;;;;;;5.30;75.20;;;;;;4989336;28;117637;-89
2021/01/27 04:46:17;;;;;;;;;;;5.30;75.20;;;;;;4989064;28;117722;-89
2021/01/27 04:48:49;;;;;;;;;;;5.30;75.20;;;;;;4988057;28;120041;-89
2021/01/27 04:51:22;;;;;;;;;;;5.30;75.20;;;;;;4987525;28;119119;-89
2021/01/27 04:53:56;;;;;;;;;;;5.30;75.20;;;;;;4988584;28;117491;-89
2021/01/27 04:56:28;;;;;;;;;;;5.30;75.30;;;;;;4989124;28;117572;-89
2021/01/27 04:58:57;;;;;;;;;;;5.30;75.30;;;;;;4988052;28;120068;-89
2021/01/27 05:01:28;;;;;;;;;;;5.30;75.20;;;;;;4987005;28;120472;-89
2021/01/27 05:04:12;;;;;;;;;;;5.30;75.20;;;;;;4988809;28;117600;-89
2021/01/27 05:06:40;;;;;;;;;;;5.30;75.20;;;;;;4988939;28;117850;-89
2021/01/27 05:09:07;;;;;;;;;;;5.30;75.20;;;;;;4987905;28;121030;-89
2021/01/27 05:11:33;;;;;;;;;;;5.30;75.20;;;;;;4987754;28;119328;-89
2021/01/27 05:13:59;;;;;;;;;;;5.30;75.30;;;;;;5005684;28;117207;-89
2021/01/27 05:16:46;;;;;;;;;;;5.30;75.30;;;;;;4988225;28;117306;-89
2021/01/27 05:19:15;;;;;;;;;;;5.30;75.30;;;;;;5005171;28;118538;-89
2021/01/27 05:21:43;;;;;;;;;;;5.30;75.30;;;;;;4987596;28;119238;-89
2021/01/27 05:24:15;;;;;;;;;;;5.30;75.30;;;;;;4988320;28;117353;-89
2021/01/27 05:26:47;;;;;;;;;;;5.30;75.30;;;;;;4988687;28;117427;-89
2021/01/27 05:29:20;;;;;;;;;;;5.30;75.40;;;;;;4987820;28;120255;-89
2021/01/27 05:32:01;;;;;;;;;;;5.30;75.40;;;;;;4987481;28;119668;-89
2021/01/27 05:34:27;;;;;;;;;;;5.30;75.30;;;;;;4988348;28;117215;-89
2021/01/27 05:36:53;;;;;;;;;;;5.30;75.30;;;;;;4988587;28;116928;-89
2021/01/27 05:39:18;;;;;;;;;;;5.30;75.30;;;;;;4987271;28;119918;-89
2021/01/27 05:41:44;;;;;;;;;;;5.30;75.20;;;;;;4986757;28;119559;-89
2021/01/27 05:44:11;;;;;;;;;;;5.30;75.30;;;;;;4988146;28;117529;-89
2021/01/27 05:46:37;;;;;;;;;;;5.30;75.30;;;;;;4988252;28;117802;-89
2021/01/27 05:49:03;;;;;;;;;;;5.30;75.30;;;;;;4987176;28;121020;-89
2021/01/27 05:51:35;;;;;;;;;;;5.30;75.30;;;;;;4987101;28;117982;-89
2021/01/27 05:54:01;;;;;;;;;;;5.30;75.30;;;;;;4988441;28;117636;-89
2021/01/27 05:56:27;;;;;;;;;;;5.30;75.30;;;;;;4988073;28;117434;-89
2021/01/27 05:59:08;;;;;;;;;;;5.30;75.30;;;;;;4987372;28;119715;-89
2021/01/27 06:01:36;;;;;;;;;;;5.30;75.30;;;;;;4986875;28;119702;-89
2021/01/27 06:04:11;;;;;;;;;;;5.30;75.40;;;;;;4987851;28;117694;-89
2021/01/27 06:06:37;;;;;;;;;;;5.30;75.30;;;;;;4987278;28;118227;-89
2021/01/27 06:09:03;;;;;;;;;;;5.30;75.30;;;;;;5003711;28;117569;-89
2021/01/27 06:11:29;;;;;;;;;;;5.30;75.30;;;;;;4986751;28;119858;-89
2021/01/27 06:14:03;;;;;;;;;;;5.30;75.40;;;;;;4987656;28;117482;-89
2021/01/27 06:16:34;;;;;;;;;;;5.30;75.40;;;;;;4987825;28;117518;-89
2021/01/27 06:19:29;;;;;;;;;;;5.30;75.40;;;;;;4986892;28;119816;-89
2021/01/27 06:22:13;;;;;;;;;;;5.30;75.30;;;;;;4977594;28;120198;-89
2021/01/27 06:24:48;;;;;;;;;;;5.30;75.40;;;;;;4987672;28;117488;-88
2021/01/27 06:27:20;;;;;;;;;;;5.30;75.30;;;;;;4987630;28;117820;-89
2021/01/27 06:29:52;;;;;;;;;;;5.30;75.30;;;;;;4986956;28;120533;-89
2021/01/27 06:32:17;;;;;;;;;;;5.30;75.30;;;;;;4985797;28;119424;-89
2021/01/27 06:34:43;;;;;;;;;;;5.30;75.40;;;;;;4987442;28;116634;-89
2021/01/27 06:37:12;;;;;;;;;;;5.20;75.30;;;;;;4987549;28;117766;-89
2021/01/27 06:39:37;;;;;;;;;;;5.30;75.40;;;;;;4986637;28;120021;-89
2021/01/27 06:42:03;;;;;;;;;;;5.20;75.40;;;;;;4986346;28;118597;-89
2021/01/27 06:44:47;;;;;;;;;;;5.20;75.40;;;;;;4987179;28;117578;-89
2021/01/27 06:47:19;;;;;;;;;;;5.20;75.50;;;;;;4987053;28;117355;-89
2021/01/27 06:49:52;;;;;;;;;;;5.20;75.50;;;;;;4986489;28;121297;-89
2021/01/27 06:52:17;;;;;;;;;;;5.30;75.50;;;;;;4986003;28;119576;-89
2021/01/27 06:54:43;;;;;;;;;;;5.20;75.40;;;;;;4987172;28;117455;-89
2021/01/27 06:57:14;;;;;;;;;;;5.30;75.50;;;;;;4986761;28;117810;-89
2021/01/27 06:59:56;;;;;;;;;;;5.30;75.50;;;;;;4986239;28;120428;-89
2021/01/27 07:02:28;;;;;;;;;;;5.30;75.50;;;;;;4986179;28;119479;-89
2021/01/27 07:05:15;;;;;;;;;;;5.20;75.50;;;;;;4987399;28;117299;-89
2021/01/27 07:07:59;;;;;;;;;;;5.20;75.50;;;;;;4987537;28;116916;-89
2021/01/27 07:10:38;;;;;;;;;;;5.20;75.60;;;;;;4986069;28;120259;-89
2021/01/27 07:13:19;;;;;;;;;;;5.20;75.50;;;;;;4986177;28;120691;-89
2021/01/27 07:15:52;;;;;;;;;;;5.20;75.50;;;;;;4987080;28;117616;-89
2021/01/27 07:18:47;;;;;;;;;;;5.20;75.50;;;;;;4987158;28;117513;-89
2021/01/27 07:21:24;;;;;;;;;;;5.20;75.60;;;;;;4950056;28;121087;-89
2021/01/27 07:23:55;;;;;;;;;;;5.20;75.60;;;;;;4986461;28;120525;-89
2021/01/27 07:26:25;;;;;;;;;;;5.20;75.60;;;;;;4990015;28;117627;-89
2021/01/27 07:29:08;;;;;;;;;;;5.20;75.60;;;;;;4990827;28;117894;-89
2021/01/27 07:31:33;;;;;;;;;;;5.20;75.60;;;;;;4989519;28;121245;-89
2021/01/27 07:34:02;;;;;;;;;;;5.20;75.70;;;;;;4989410;28;119214;-89
2021/01/27 07:36:32;;;;;;;;;;;5.20;75.50;;;;;;4989905;28;117298;-89
2021/01/27 07:38:58;;;;;;;;;;;5.20;75.60;;;;;;4990486;28;117977;-89
2021/01/27 07:41:25;;;;;;;;;;;5.20;75.60;;;;;;4989462;28;118702;-89
2021/01/27 07:43:51;;;;;;;;;;;5.20;75.60;;;;;;4989196;28;118876;-89
2021/01/27 07:46:17;;;;;;;;;;;5.20;75.70;;;;;;4990010;28;117484;-89
2021/01/27 07:49:09;;;;;;;;;;;5.20;75.70;;;;;;4989647;28;117720;-89
2021/01/27 07:51:58;;;;;;;;;;;5.20;75.60;;;;;;4986597;28;117640;-89
2021/01/27 07:54:33;;;;;;;;;;;5.20;75.70;;;;;;4983365;28;119068;-89
2021/01/27 07:57:02;;;;;;;;;;;5.20;75.70;;;;;;4989845;28;117443;-89
2021/01/27 07:59:35;;;;;;;;;;;5.20;75.70;;;;;;4990882;28;117529;-89
2021/01/27 08:02:20;;;;;;;;;;;5.30;75.70;;;;;;4989280;28;120516;-89
2021/01/27 08:04:55;;;;;;;;;;;5.20;75.60;;;;;;4988991;28;119633;-89
2021/01/27 08:07:32;;;;;;;;;;;5.20;75.70;;;;;;4990055;28;117419;-89
2021/01/27 08:10:16;;;;;;;;;;;5.20;75.70;;;;;;4990474;28;116959;-89
2021/01/27 08:12:43;;;;;;;;;;;5.20;75.70;;;;;;4988836;28;120088;-89
2021/01/27 08:15:11;;;;;;;;;;;5.20;75.70;;;;;;4988595;28;119081;-89
2021/01/27 08:17:55;;;;;;;;;;;5.20;75.70;;;;;;4989420;28;116592;-89
2021/01/27 08:20:23;;;;;;;;;;;5.20;75.70;;;;;;5008225;28;116834;-89
2021/01/27 08:22:55;;;;;;;;;;;5.20;75.90;;;;;;4988679;28;117732;-89
2021/01/27 08:25:40;;;;;;;;;;;5.20;75.90;;;;;;4988964;28;119319;-89
2021/01/27 08:28:25;;;;;;;;;;;5.20;75.80;;;;;;4989363;28;117555;-88
2021/01/27 08:31:16;;;;;;;;;;;5.20;75.80;;;;;;4990158;28;116751;-89
2021/01/27 08:33:42;;;;;;;;;;;5.20;75.90;;;;;;4988726;28;120190;-89
2021/01/27 08:36:09;;;;;;;;;;;5.20;75.80;;;;;;4987410;28;119369;-89
2021/01/27 08:38:34;;;;;;;;;;;5.20;75.80;;;;;;4989229;28;117541;-89
2021/01/27 08:41:00;;;;;;;;;;;5.20;75.90;;;;;;4989216;28;116879;-89
2021/01/27 08:43:26;;;;;;;;;;;5.20;75.90;;;;;;4988651;28;119888;-89
2021/01/27 08:45:52;;;;;;;;;;;5.20;75.80;;;;;;4988662;28;119449;-89
2021/01/27 08:48:37;;;;;;;;;;;5.20;75.90;;;;;;4989066;28;116562;-89
2021/01/27 08:51:03;;;;;;;;;;;5.20;75.90;;;;;;4989257;28;116949;-89
2021/01/27 08:53:48;;;;;;;;;;;5.20;76.00;;;;;;4988130;28;120157;-89
2021/01/27 08:56:14;;;;;;;;;;;5.20;75.90;;;;;;4988317;28;119067;-89
2021/01/27 08:58:39;;;;;;;;;;;5.20;75.90;;;;;;4989425;28;116524;-89
2021/01/27 09:01:20;;;;;;;;;;;5.20;76.00;;;;;;5006659;28;116774;-89
2021/01/27 09:03:49;;;;;;;;;;;5.20;76.10;;;;;;4988101;28;117482;-89
2021/01/27 09:06:34;;;;;;;;;;;5.20;76.60;;;;;;4987373;28;117709;-89
2021/01/27 09:09:18;;;;;;;;;;;5.20;75.90;;;;;;4988603;28;117400;-89
2021/01/27 09:11:44;;;;;;;;;;;5.20;76.10;;;;;;4989062;28;116975;-89
2021/01/27 09:14:13;;;;;;;;;;;5.20;76.00;;;;;;4987979;28;119345;-88
2021/01/27 09:16:39;;;;;;;;;;;5.20;76.10;;;;;;4987711;28;117435;-89
2021/01/27 09:19:12;;;;;;;;;;;5.20;76.10;;;;;;4988830;28;116619;-89
2021/01/27 09:21:38;;;;;;;;;;;5.20;76.00;;;;;;4989411;28;117444;-90
2021/01/27 09:24:10;;;;;;;;;;;5.20;76.00;;;;;;4988387;28;120136;-88
2021/01/27 09:26:41;;;;;;;;;;;5.20;76.10;;;;;;4988243;28;119418;-88
2021/01/27 09:29:07;;;;;;;;;;;5.20;76.10;;;;;;4989334;28;117424;-88
2021/01/27 09:31:33;;;;;;;;;;;5.20;76.10;;;;;;4988666;28;117400;-88
2021/01/27 09:33:59;;;;;;;;;;;5.20;76.20;;;;;;4987882;28;120325;-88
2021/01/27 09:36:26;;;;;;;;;;;5.20;76.10;;;;;;4987996;28;120658;-89
2021/01/27 09:38:55;;;;;;;;;;;5.20;76.10;;;;;;4988646;28;117425;-85
2021/01/27 09:41:24;;;;;;;;;;;5.20;76.20;;;;;;4988928;28;117843;-85
2021/01/27 09:43:50;;;;;;;;;;;5.20;76.10;;;;;;4987437;28;121523;-85
2021/01/27 09:46:26;;;;;;;;;;;5.20;76.10;;;;;;4986917;28;118952;-85
2021/01/27 09:48:55;;;;;;;;;;;5.20;76.20;;;;;;4989011;28;117722;-85
2021/01/27 09:51:21;;;;;;;;;;;5.20;76.20;;;;;;4988605;28;117792;-85
2021/01/27 09:53:46;;;;;;;;;;;5.20;76.20;;;;;;4987207;28;121317;-85
2021/01/27 09:56:15;;;;;;;;;;;5.20;76.10;;;;;;4986619;28;119322;-85
2021/01/27 09:58:41;;;;;;;;;;;5.20;76.10;;;;;;4987826;28;117739;-85
2021/01/27 10:01:07;;;;;;;;;;;5.20;76.20;;;;;;4988135;28;117306;-85
2021/01/27 10:03:34;;;;;;;;;;;5.20;76.20;;;;;;4986929;28;120448;-85
2021/01/27 10:06:02;;;;;;;;;;;5.20;76.20;;;;;;4986958;28;121390;-85
2021/01/27 10:08:35;;;;;;;;;;;5.30;76.30;;;;;;4987578;28;117554;-86
2021/01/27 10:11:10;;;;;;;;;;;5.30;76.30;;;;;;4988000;28;117410;-86
2021/01/27 10:13:36;;;;;;;;;;;5.30;76.30;;;;;;5003922;28;118654;-86
2021/01/27 10:16:05;;;;;;;;;;;5.30;76.30;;;;;;4986780;28;120909;-86
2021/01/27 10:18:32;;;;;;;;;;;5.20;76.20;;;;;;4987453;28;117796;-86
2021/01/27 10:21:01;;;;;;;;;;;5.30;76.30;;;;;;5004316;28;117493;-86
2021/01/27 10:23:34;;;;;;;;;;;5.30;76.30;;;;;;4986797;28;121286;-86
2021/01/27 10:26:19;;;;;;;;;;;5.30;76.30;;;;;;4986735;28;119768;-86
2021/01/27 10:28:44;;;;;;;;;;;5.30;76.10;;;;;;4987547;28;117434;-86
2021/01/27 10:31:10;;;;;;;;;;;5.30;76.10;;;;;;4987566;28;117510;-86
2021/01/27 10:33:43;;;;;;;;;;;5.30;76.10;;;;;;4986562;28;125015;-86
2021/01/27 10:36:28;;;;;;;;;;;5.30;76.30;;;;;;5003588;28;117673;-86
2021/01/27 10:39:12;;;;;;;;;;;5.30;76.40;;;;;;4987723;28;117475;-86
2021/01/27 10:41:37;;;;;;;;;;;5.30;76.90;;;;;;4987667;28;117422;-86
2021/01/27 10:44:21;;;;;;;;;;;5.30;76.40;;;;;;4986414;28;120403;-86
2021/01/27 10:46:47;;;;;;;;;;;5.20;76.40;;;;;;4985657;28;119758;-86
2021/01/27 10:49:12;;;;;;;;;;;5.30;76.60;;;;;;4987076;28;117483;-86
2021/01/27 10:51:38;;;;;;;;;;;5.20;76.50;;;;;;4987207;28;117777;-86
2021/01/27 10:54:03;;;;;;;;;;;5.30;76.50;;;;;;4986319;28;124425;-86
2021/01/27 10:56:29;;;;;;;;;;;5.30;76.50;;;;;;4986154;28;120842;-86
2021/01/27 10:58:55;;;;;;;;;;;5.30;77.10;;;;;;4988270;28;117614;-86
2021/01/27 11:01:20;;;;;;;;;;;5.30;76.50;;;;;;4990915;28;117750;-86
2021/01/27 11:03:46;;;;;;;;;;;5.30;76.60;;;;;;4989953;28;121706;-86
2021/01/27 11:06:11;;;;;;;;;;;5.20;76.50;;;;;;4989704;28;120608;-86
2021/01/27 11:08:37;;;;;;;;;;;5.30;76.80;;;;;;4990401;28;117547;-86
2021/01/27 11:11:03;;;;;;;;;;;5.30;76.70;;;;;;4990302;28;117642;-86
2021/01/27 11:13:31;;;;;;;;;;;5.30;76.80;;;;;;4989576;28;121228;-86
2021/01/27 11:15:57;;;;;;;;;;;5.20;76.60;;;;;;5006552;28;117364;-86
2021/01/27 11:18:22;;;;;;;;;;;5.30;76.70;;;;;;4990294;28;117529;-86
2021/01/27 11:20:49;;;;;;;;;;;5.20;76.70;;;;;;4990710;28;117373;-86
2021/01/27 11:23:14;;;;;;;;;;;5.30;77.40;;;;;;4989356;28;120998;-86
2021/01/27 11:25:40;;;;;;;;;;;5.20;76.70;;;;;;4989605;28;120545;-86
2021/01/27 11:28:05;;;;;;;;;;;5.20;76.70;;;;;;4990391;28;117346;-86
2021/01/27 11:30:31;;;;;;;;;;;5.20;76.80;;;;;;4990707;28;117478;-86
2021/01/27 11:32:56;;;;;;;;;;;5.20;76.70;;;;;;4989254;28;120409;-86
2021/01/27 11:35:22;;;;;;;;;;;5.30;76.80;;;;;;4988704;28;120534;-86
2021/01/27 11:37:48;;;;;;;;;;;5.20;76.80;;;;;;4989625;28;117615;-86
2021/01/27 11:40:14;;;;;;;;;;;5.30;76.80;;;;;;4990335;28;117900;-86
2021/01/27 11:42:39;;;;;;;;;;;5.20;76.80;;;;;;4989237;28;120501;-86
2021/01/27 11:45:05;;;;;;;;;;;5.20;76.80;;;;;;4989301;28;119199;-86
2021/01/27 11:47:30;;;;;;;;;;;5.20;76.80;;;;;;4989744;28;117737;-86
2021/01/27 11:49:56;;;;;;;;;;;5.20;76.90;;;;;;4990435;28;117805;-86
2021/01/27 11:52:21;;;;;;;;;;;5.20;76.80;;;;;;4988813;28;120447;-86
2021/01/27 11:54:50;;;;;;;;;;;5.20;76.90;;;;;;4989055;28;119874;-86
2021/01/27 11:57:16;;;;;;;;;;;5.20;76.90;;;;;;4989798;28;117461;-86
2021/01/27 11:59:41;;;;;;;;;;;5.20;76.90;;;;;;5006553;28;117755;-87
2021/01/27 12:02:07;;;;;;;;;;;5.20;76.90;;;;;;4988906;28;120043;-88
2021/01/27 12:04:33;;;;;;;;;;;5.20;76.80;;;;;;4989083;28;119549;-87
2021/01/27 12:06:58;;;;;;;;;;;5.20;76.90;;;;;;4989676;28;117417;-87
2021/01/27 12:09:24;;;;;;;;;;;5.20;76.80;;;;;;4989982;28;117759;-87
2021/01/27 12:11:49;;;;;;;;;;;5.20;77.00;;;;;;4988341;28;126911;-87
2021/01/27 12:14:15;;;;;;;;;;;5.30;77.00;;;;;;4988890;28;119482;-88
2021/01/27 12:16:42;;;;;;;;;;;5.20;77.00;;;;;;5006387;28;117452;-88
2021/01/27 12:19:08;;;;;;;;;;;5.20;76.90;;;;;;4989871;28;117816;-87
2021/01/27 12:21:35;;;;;;;;;;;5.20;77.40;;;;;;4988667;28;121527;-88
2021/01/27 12:24:03;;;;;;;;;;;5.30;76.90;;;;;;4988005;28;120426;-88
2021/01/27 12:26:29;;;;;;;;;;;5.30;76.90;;;;;;4989305;28;117637;-88
2021/01/27 12:28:54;;;;;;;;;;;5.30;76.90;;;;;;4989852;28;117612;-88
2021/01/27 12:31:20;;;;;;;;;;;5.30;76.80;;;;;;4988470;28;120263;-88
2021/01/27 12:33:45;;;;;;;;;;;5.30;76.90;;;;;;4988414;28;120251;-88
2021/01/27 12:36:11;;;;;;;;;;;5.30;76.90;;;;;;5006241;28;117523;-88
2021/01/27 12:38:36;;;;;;;;;;;5.30;76.90;;;;;;5006307;28;117364;-88
2021/01/27 12:41:02;;;;;;;;;;;5.30;77.00;;;;;;4988277;28;121283;-88
2021/01/27 12:43:27;;;;;;;;;;;5.30;77.00;;;;;;4988297;28;119499;-88
2021/01/27 12:45:53;;;;;;;;;;;5.30;77.00;;;;;;4989264;28;117456;-86
2021/01/27 12:48:18;;;;;;;;;;;5.30;77.10;;;;;;4988412;28;117699;-88
2021/01/27 12:50:44;;;;;;;;;;;5.30;77.10;;;;;;4988266;28;119597;-88
2021/01/27 12:53:09;;;;;;;;;;;5.20;77.00;;;;;;5004609;28;117598;-88
2021/01/27 12:55:35;;;;;;;;;;;5.20;77.10;;;;;;5005853;28;117578;-88
2021/01/27 12:58:00;;;;;;;;;;;5.30;77.00;;;;;;4988997;28;117844;-88
2021/01/27 13:00:26;;;;;;;;;;;5.30;77.10;;;;;;4987860;28;119675;-88
2021/01/27 13:02:52;;;;;;;;;;;5.20;77.10;;;;;;4987814;28;120947;-88
2021/01/27 13:05:18;;;;;;;;;;;5.30;77.10;;;;;;5005914;28;117516;-87
2021/01/27 13:07:44;;;;;;;;;;;5.20;77.20;;;;;;4989039;28;117774;-87
2021/01/27 13:10:10;;;;;;;;;;;5.30;77.10;;;;;;4987790;28;120372;-87
2021/01/27 13:12:36;;;;;;;;;;;5.20;77.10;;;;;;4987198;28;120032;-87
2021/01/27 13:15:03;;;;;;;;;;;5.20;77.10;;;;;;4988726;28;117399;-87
2021/01/27 13:17:29;;;;;;;;;;;5.20;77.10;;;;;;4988844;28;117511;-87
2021/01/27 13:19:55;;;;;;;;;;;5.20;77.20;;;;;;4987717;28;121718;-87
2021/01/27 13:22:21;;;;;;;;;;;5.20;77.20;;;;;;4986836;28;118295;-87
2021/01/27 13:24:47;;;;;;;;;;;5.20;77.10;;;;;;4988491;28;117876;-87
2021/01/27 13:27:13;;;;;;;;;;;5.20;77.10;;;;;;4988414;28;116945;-87
2021/01/27 13:29:39;;;;;;;;;;;5.20;77.20;;;;;;4987583;28;117610;-87
2021/01/27 13:32:05;;;;;;;;;;;5.20;77.20;;;;;;4987579;28;119859;-87
2021/01/27 13:34:30;;;;;;;;;;;5.20;77.30;;;;;;4988385;28;117462;-87
2021/01/27 13:36:56;;;;;;;;;;;5.20;77.20;;;;;;4987916;28;117879;-87
2021/01/27 13:39:30;;;;;;;;;;;5.20;77.20;;;;;;4987513;28;121453;-89
2021/01/27 13:42:19;;;;;;;;;;;5.20;77.10;;;;;;5002817;28;117539;-90
2021/01/27 13:44:50;;;;;;;;;;;5.20;77.30;;;;;;4987144;28;117610;-90
2021/01/27 13:47:15;;;;;;;;;;;5.20;77.20;;;;;;4971686;28;117490;-90
2021/01/27 13:49:41;;;;;;;;;;;5.30;77.30;;;;;;4986859;28;118570;-90
2021/01/27 13:52:06;;;;;;;;;;;5.30;77.30;;;;;;4986992;28;117275;-90
2021/01/27 13:54:32;;;;;;;;;;;5.30;77.30;;;;;;5005536;28;117362;-90
2021/01/27 13:56:57;;;;;;;;;;;5.20;77.30;;;;;;4988556;28;117856;-90
2021/01/27 13:59:23;;;;;;;;;;;5.20;77.30;;;;;;4987353;28;120124;-88
2021/01/27 14:01:48;;;;;;;;;;;5.20;77.30;;;;;;4986402;28;119217;-87
2021/01/27 14:04:14;;;;;;;;;;;5.20;77.30;;;;;;4987955;28;117902;-87
2021/01/27 14:06:40;;;;;;;;;;;5.20;77.30;;;;;;4987996;28;117904;-89
2021/01/27 14:09:05;;;;;;;;;;;5.20;77.30;;;;;;4987059;28;120913;-87
2021/01/27 14:11:30;;;;;;;;;;;5.20;77.40;;;;;;4986739;28;120716;-86
2021/01/27 14:13:56;;;;;;;;;;;5.20;77.30;;;;;;4988095;28;117546;-89
2021/01/27 14:16:22;;;;;;;;;;;5.20;77.30;;;;;;4987784;28;117466;-86
2021/01/27 14:18:47;;;;;;;;;;;5.20;77.30;;;;;;5004048;28;117719;-86
2021/01/27 14:21:13;;;;;;;;;;;5.20;77.50;;;;;;4987032;28;119483;-86
2021/01/27 14:23:38;;;;;;;;;;;5.20;77.40;;;;;;4987770;28;117226;-86
2021/01/27 14:26:04;;;;;;;;;;;5.30;77.40;;;;;;4987341;28;117634;-86
2021/01/27 14:28:29;;;;;;;;;;;5.20;77.40;;;;;;4986651;28;119945;-86